sensor_id;sensor_type;location;lat;lon;timestamp;pressure;altitude;pressure_sealevel;temperature;humidity
59315;BME280;46521;50.160;20.802;2023-10-08T00:09:25;99320.92;;;13.37;75.18
59315;BME280;46521;50.160;20.802;2023-10-08T00:19:26;99325.17;;;13.10;74.69
59315;BME280;46521;50.160;20.802;2023-10-08T00:29:35;99334.75;;;12.83;75.13
59315;BME280;46521;50.160;20.802;2023-10-08T00:39:41;99331.72;;;12.64;75.36
59315;BME280;46521;50.160;20.802;2023-10-08T00:49:43;99328.55;;;12.54;75.37
59315;BME280;46521;50.160;20.802;2023-10-08T00:59:50;99348.52;;;12.50;75.15
59315;BME280;46521;50.160;20.802;2023-10-08T01:09:54;99334.82;;;12.46;75.86
59315;BME280;46521;50.160;20.802;2023-10-08T01:20:00;99344.15;;;12.42;74.91
59315;BME280;46521;50.160;20.802;2023-10-08T01:30:21;99352.97;;;12.28;75.75
59315;BME280;46521;50.160;20.802;2023-10-08T01:40:22;99355.70;;;12.19;75.19
59315;BME280;46521;50.160;20.802;2023-10-08T01:50:24;99343.30;;;12.20;75.83
59315;BME280;46521;50.160;20.802;2023-10-08T02:00:26;99360.20;;;12.19;75.13
59315;BME280;46521;50.160;20.802;2023-10-08T02:10:27;99347.31;;;12.16;75.48
59315;BME280;46521;50.160;20.802;2023-10-08T02:20:30;99361.97;;;12.12;75.39
59315;BME280;46521;50.160;20.802;2023-10-08T02:30:32;99370.98;;;11.87;75.73
59315;BME280;46521;50.160;20.802;2023-10-08T02:40:33;99363.68;;;11.75;75.72
59315;BME280;46521;50.160;20.802;2023-10-08T02:50:40;99396.10;;;11.77;76.33
59315;BME280;46521;50.160;20.802;2023-10-08T03:00:43;99361.96;;;11.82;75.64
59315;BME280;46521;50.160;20.802;2023-10-08T03:10:45;99359.39;;;11.59;76.16
59315;BME280;46521;50.160;20.802;2023-10-08T03:20:49;99396.88;;;11.32;75.50
59315;BME280;46521;50.160;20.802;2023-10-08T03:30:52;99387.97;;;11.10;76.44
59315;BME280;46521;50.160;20.802;2023-10-08T03:40:57;99375.69;;;11.32;76.02
59315;BME280;46521;50.160;20.802;2023-10-08T03:51:04;99401.13;;;11.18;75.98
59315;BME280;46521;50.160;20.802;2023-10-08T04:01:13;99445.58;;;11.00;76.92
59315;BME280;46521;50.160;20.802;2023-10-08T04:11:20;99457.02;;;11.00;76.61
59315;BME280;46521;50.160;20.802;2023-10-08T04:21:31;99473.99;;;10.83;76.83
59315;BME280;46521;50.160;20.802;2023-10-08T04:31:35;99476.70;;;10.67;76.57
59315;BME280;46521;50.160;20.802;2023-10-08T04:41:48;99479.74;;;10.55;77.02
59315;BME280;46521;50.160;20.802;2023-10-08T04:52:01;99517.45;;;10.49;76.79
59315;BME280;46521;50.160;20.802;2023-10-08T05:02:10;99527.98;;;10.57;76.66
59315;BME280;46521;50.160;20.802;2023-10-08T05:12:22;99550.63;;;10.60;77.03
59315;BME280;46521;50.160;20.802;2023-10-08T05:22:38;99573.92;;;10.64;77.00
59315;BME280;46521;50.160;20.802;2023-10-08T05:32:39;99588.13;;;10.63;77.64
59315;BME280;46521;50.160;20.802;2023-10-08T05:43:16;99598.57;;;10.57;76.81
59315;BME280;46521;50.160;20.802;2023-10-08T05:53:38;99644.36;;;10.49;77.39
59315;BME280;46521;50.160;20.802;2023-10-08T06:03:45;99667.16;;;10.42;77.67
59315;BME280;46521;50.160;20.802;2023-10-08T06:14:01;99689.64;;;10.46;78.25
59315;BME280;46521;50.160;20.802;2023-10-08T06:24:05;99704.86;;;10.44;78.20
59315;BME280;46521;50.160;20.802;2023-10-08T06:34:10;99730.78;;;10.40;77.88
59315;BME280;46521;50.160;20.802;2023-10-08T06:44:13;99741.03;;;10.43;77.94
59315;BME280;46521;50.160;20.802;2023-10-08T06:54:18;99767.31;;;10.37;78.08
59315;BME280;46521;50.160;20.802;2023-10-08T07:04:19;99759.34;;;10.28;78.45
59315;BME280;46521;50.160;20.802;2023-10-08T07:14:23;99780.17;;;10.32;78.72
59315;BME280;46521;50.160;20.802;2023-10-08T07:24:29;99804.00;;;10.56;78.58
59315;BME280;46521;50.160;20.802;2023-10-08T07:34:32;99803.34;;;10.87;78.65
59315;BME280;46521;50.160;20.802;2023-10-08T07:44:34;99819.53;;;11.17;77.65
59315;BME280;46521;50.160;20.802;2023-10-08T07:54:39;99827.95;;;11.21;77.64
59315;BME280;46521;50.160;20.802;2023-10-08T08:04:42;99833.58;;;11.34;77.31
59315;BME280;46521;50.160;20.802;2023-10-08T08:14:52;99847.22;;;12.18;76.94
59315;BME280;46521;50.160;20.802;2023-10-08T08:24:54;99865.38;;;12.84;75.84
59315;BME280;46521;50.160;20.802;2023-10-08T08:34:57;99877.77;;;13.30;74.04
59315;BME280;46521;50.160;20.802;2023-10-08T08:45:00;99882.22;;;13.52;73.48
59315;BME280;46521;50.160;20.802;2023-10-08T08:55:05;99911.17;;;13.47;71.46
59315;BME280;46521;50.160;20.802;2023-10-08T09:05:14;99920.27;;;13.68;70.93
59315;BME280;46521;50.160;20.802;2023-10-08T09:15:25;99909.39;;;14.08;69.47
59315;BME280;46521;50.160;20.802;2023-10-08T09:25:27;99914.11;;;14.42;67.72
59315;BME280;46521;50.160;20.802;2023-10-08T09:35:34;99932.63;;;14.50;65.52
59315;BME280;46521;50.160;20.802;2023-10-08T09:45:38;99945.81;;;14.58;64.18
59315;BME280;46521;50.160;20.802;2023-10-08T09:55:59;99952.89;;;14.51;62.38
59315;BME280;46521;50.160;20.802;2023-10-08T10:06:12;99961.30;;;14.85;63.17
59315;BME280;46521;50.160;20.802;2023-10-08T10:16:18;99987.20;;;14.76;60.80
59315;BME280;46521;50.160;20.802;2023-10-08T10:26:34;99993.65;;;14.07;60.24
59315;BME280;46521;50.160;20.802;2023-10-08T10:36:37;99994.38;;;14.31;58.99
59315;BME280;46521;50.160;20.802;2023-10-08T10:46:42;100018.26;;;14.39;58.35
59315;BME280;46521;50.160;20.802;2023-10-08T10:56:44;100005.48;;;14.49;57.88
59315;BME280;46521;50.160;20.802;2023-10-08T11:06:47;100029.80;;;14.16;57.06
59315;BME280;46521;50.160;20.802;2023-10-08T11:16:51;100025.88;;;14.42;56.71
59315;BME280;46521;50.160;20.802;2023-10-08T11:26:53;100037.86;;;14.53;55.88
59315;BME280;46521;50.160;20.802;2023-10-08T11:37:07;100042.64;;;14.28;54.93
59315;BME280;46521;50.160;20.802;2023-10-08T11:47:37;100051.66;;;13.88;53.76
59315;BME280;46521;50.160;20.802;2023-10-08T11:57:42;100063.52;;;14.01;53.61
59315;BME280;46521;50.160;20.802;2023-10-08T12:07:47;100084.97;;;13.99;53.29
59315;BME280;46521;50.160;20.802;2023-10-08T12:17:49;100095.58;;;13.84;53.15
59315;BME280;46521;50.160;20.802;2023-10-08T12:28:09;100106.03;;;13.63;51.73
59315;BME280;46521;50.160;20.802;2023-10-08T12:38:13;100115.14;;;13.68;51.49
59315;BME280;46521;50.160;20.802;2023-10-08T12:48:15;100130.44;;;13.35;50.44
59315;BME280;46521;50.160;20.802;2023-10-08T12:58:16;100110.45;;;13.47;49.53
59315;BME280;46521;50.160;20.802;2023-10-08T13:08:19;100121.52;;;13.20;50.28
59315;BME280;46521;50.160;20.802;2023-10-08T13:18:22;100125.15;;;13.27;49.61
59315;BME280;46521;50.160;20.802;2023-10-08T13:28:24;100128.59;;;13.04;48.60
59315;BME280;46521;50.160;20.802;2023-10-08T13:38:27;100131.59;;;12.93;48.68
59315;BME280;46521;50.160;20.802;2023-10-08T13:48:32;100153.77;;;12.60;48.60
59315;BME280;46521;50.160;20.802;2023-10-08T13:58:34;100147.61;;;12.60;48.02
59315;BME280;46521;50.160;20.802;2023-10-08T14:08:37;100156.27;;;12.46;48.07
59315;BME280;46521;50.160;20.802;2023-10-08T14:18:40;100174.34;;;12.17;46.80
59315;BME280;46521;50.160;20.802;2023-10-08T14:28:41;100180.83;;;12.15;47.45
59315;BME280;46521;50.160;20.802;2023-10-08T14:38:52;100183.45;;;12.06;47.27
59315;BME280;46521;50.160;20.802;2023-10-08T14:49:12;100201.43;;;11.70;47.85
59315;BME280;46521;50.160;20.802;2023-10-08T14:59:14;100207.17;;;11.49;47.84
59315;BME280;46521;50.160;20.802;2023-10-08T15:09:16;100221.29;;;11.23;47.12
59315;BME280;46521;50.160;20.802;2023-10-08T15:19:23;100225.94;;;10.95;47.91
59315;BME280;46521;50.160;20.802;2023-10-08T15:29:25;100251.05;;;10.64;48.31
59315;BME280;46521;50.160;20.802;2023-10-08T15:39:27;100270.41;;;10.47;48.42
59315;BME280;46521;50.160;20.802;2023-10-08T15:49:29;100292.27;;;10.21;48.30
59315;BME280;46521;50.160;20.802;2023-10-08T15:59:31;100309.69;;;9.96;48.57
59315;BME280;46521;50.160;20.802;2023-10-08T16:09:32;100331.52;;;9.70;49.52
59315;BME280;46521;50.160;20.802;2023-10-08T16:19:34;100349.70;;;9.36;50.07
59315;BME280;46521;50.160;20.802;2023-10-08T16:29:38;100347.53;;;9.02;50.83
59315;BME280;46521;50.160;20.802;2023-10-08T16:39:39;100373.94;;;8.82;50.97
59315;BME280;46521;50.160;20.802;2023-10-08T16:49:41;100395.97;;;8.62;50.69
59315;BME280;46521;50.160;20.802;2023-10-08T16:59:42;100413.32;;;8.55;50.88
59315;BME280;46521;50.160;20.802;2023-10-08T17:09:44;100403.73;;;8.44;51.40
59315;BME280;46521;50.160;20.802;2023-10-08T17:19:45;100403.81;;;8.33;51.72
59315;BME280;46521;50.160;20.802;2023-10-08T17:29:50;100419.44;;;8.24;51.96
59315;BME280;46521;50.160;20.802;2023-10-08T17:39:52;100434.00;;;8.19;52.49
59315;BME280;46521;50.160;20.802;2023-10-08T17:49:54;100453.41;;;8.18;52.49
59315;BME280;46521;50.160;20.802;2023-10-08T17:59:56;100462.56;;;8.14;52.10
59315;BME280;46521;50.160;20.802;2023-10-08T18:09:59;100472.84;;;8.17;52.84
59315;BME280;46521;50.160;20.802;2023-10-08T18:20:00;100475.37;;;7.97;53.12
59315;BME280;46521;50.160;20.802;2023-10-08T18:30:03;100483.43;;;7.74;53.68
59315;BME280;46521;50.160;20.802;2023-10-08T18:40:07;100495.36;;;7.79;53.43
59315;BME280;46521;50.160;20.802;2023-10-08T18:50:13;100487.53;;;7.67;53.40
59315;BME280;46521;50.160;20.802;2023-10-08T19:00:15;100495.75;;;7.53;54.26
59315;BME280;46521;50.160;20.802;2023-10-08T19:10:18;100507.61;;;7.47;55.08
59315;BME280;46521;50.160;20.802;2023-10-08T19:20:21;100506.11;;;7.33;55.19
59315;BME280;46521;50.160;20.802;2023-10-08T19:30:25;100519.32;;;7.22;55.94
59315;BME280;46521;50.160;20.802;2023-10-08T19:40:26;100529.92;;;6.99;55.64
59315;BME280;46521;50.160;20.802;2023-10-08T19:50:32;100518.95;;;6.83;56.95
59315;BME280;46521;50.160;20.802;2023-10-08T20:00:34;100526.59;;;6.86;56.30
59315;BME280;46521;50.160;20.802;2023-10-08T20:10:38;100537.84;;;6.88;56.94
59315;BME280;46521;50.160;20.802;2023-10-08T20:20:40;100542.02;;;6.79;57.80
59315;BME280;46521;50.160;20.802;2023-10-08T20:30:42;100556.84;;;6.69;57.66
59315;BME280;46521;50.160;20.802;2023-10-08T20:40:45;100562.45;;;6.64;58.58
59315;BME280;46521;50.160;20.802;2023-10-08T20:50:46;100567.37;;;6.58;58.91
59315;BME280;46521;50.160;20.802;2023-10-08T21:00:48;100568.70;;;6.52;58.62
59315;BME280;46521;50.160;20.802;2023-10-08T21:10:53;100581.34;;;6.47;58.53
59315;BME280;46521;50.160;20.802;2023-10-08T21:20:54;100580.39;;;6.37;58.81
59315;BME280;46521;50.160;20.802;2023-10-08T21:31:05;100586.57;;;6.13;59.33
59315;BME280;46521;50.160;20.802;2023-10-08T21:41:07;100583.66;;;6.05;59.84
59315;BME280;46521;50.160;20.802;2023-10-08T21:51:12;100581.89;;;5.81;59.95
59315;BME280;46521;50.160;20.802;2023-10-08T22:01:13;100592.59;;;5.67;60.58
59315;BME280;46521;50.160;20.802;2023-10-08T22:11:19;100580.74;;;5.61;60.58
59315;BME280;46521;50.160;20.802;2023-10-08T22:21:20;100589.20;;;5.53;60.97
59315;BME280;46521;50.160;20.802;2023-10-08T22:31:25;100584.97;;;5.39;61.18
59315;BME280;46521;50.160;20.802;2023-10-08T22:41:26;100608.05;;;5.34;61.55
59315;BME280;46521;50.160;20.802;2023-10-08T22:51:37;100588.30;;;5.17;61.88
59315;BME280;46521;50.160;20.802;2023-10-08T23:01:39;100581.38;;;5.16;61.85
59315;BME280;46521;50.160;20.802;2023-10-08T23:11:44;100594.09;;;5.10;62.61
59315;BME280;46521;50.160;20.802;2023-10-08T23:21:49;100587.71;;;5.01;62.39
59315;BME280;46521;50.160;20.802;2023-10-08T23:31:52;100579.23;;;4.97;62.62
59315;BME280;46521;50.160;20.802;2023-10-08T23:41:56;100564.33;;;4.98;62.90
59315;BME280;46521;50.160;20.802;2023-10-08T23:52:05;100552.27;;;4.95;63.01
